createdAt,value
2022-10-02T00:00:03.797Z,2.20
2022-10-02T00:02:42.864Z,2.20
2022-10-02T00:05:24.438Z,2.42
2022-10-02T00:08:05.517Z,2.25
2022-10-02T00:10:41.761Z,3.53
2022-10-02T00:13:14.317Z,1.92
2022-10-02T00:15:42.236Z,1.70
2022-10-02T00:18:16.179Z,1.58
2022-10-02T00:21:16.244Z,2.13
2022-10-02T00:23:49.076Z,4.75
2022-10-02T00:26:24.770Z,3.13
2022-10-02T00:29:02.673Z,2.90
2022-10-02T00:32:14.201Z,3.03
2022-10-02T00:34:59.000Z,2.13
2022-10-02T00:37:31.491Z,2.38
2022-10-02T00:40:09.924Z,2.88
2022-10-02T00:43:06.043Z,1.85
2022-10-02T00:45:41.251Z,2.63
2022-10-02T00:48:26.875Z,2.05
2022-10-02T00:51:20.919Z,2.75
2022-10-02T00:54:15.883Z,2.28
2022-10-02T00:57:04.755Z,2.63
2022-10-02T01:00:02.280Z,2.65
2022-10-02T01:02:43.186Z,2.08
2022-10-02T01:05:10.653Z,2.10
2022-10-02T01:07:42.112Z,2.42
2022-10-02T01:10:15.672Z,2.25
2022-10-02T01:12:42.496Z,2.70
2022-10-02T01:15:18.380Z,3.13
2022-10-02T01:17:47.029Z,2.47
2022-10-02T01:20:21.453Z,2.83
2022-10-02T01:23:05.881Z,2.47
2022-10-02T01:25:33.003Z,1.70
2022-10-02T01:27:59.888Z,1.80
2022-10-02T01:30:28.708Z,1.83
2022-10-02T01:32:57.725Z,2.25
2022-10-02T01:35:31.590Z,2.47
2022-10-02T01:38:02.055Z,1.95
2022-10-02T01:40:31.731Z,2.13
2022-10-02T01:43:11.934Z,2.05
2022-10-02T01:46:10.152Z,2.50
2022-10-02T01:48:47.271Z,1.77
2022-10-02T01:51:32.308Z,2.42
2022-10-02T01:54:11.893Z,1.65
2022-10-02T01:56:51.976Z,2.72
2022-10-02T01:59:18.687Z,2.60
2022-10-02T02:02:19.039Z,1.33
2022-10-02T02:05:31.147Z,2.33
2022-10-02T02:08:42.965Z,1.60
2022-10-02T02:11:16.083Z,3.67
2022-10-02T02:13:51.673Z,2.55
2022-10-02T02:16:43.116Z,2.08
2022-10-02T02:19:11.060Z,2.00
2022-10-02T02:21:46.102Z,2.28
2022-10-02T02:24:26.443Z,1.95
2022-10-02T02:26:56.684Z,1.33
2022-10-02T02:29:26.894Z,1.63
2022-10-02T02:31:58.103Z,2.25
2022-10-02T02:34:35.576Z,1.35
2022-10-02T02:37:08.349Z,1.52
2022-10-02T02:39:46.087Z,2.15
2022-10-02T02:42:17.971Z,1.85
2022-10-02T02:44:57.661Z,1.45
2022-10-02T02:47:55.167Z,1.52
2022-10-02T02:50:24.164Z,1.95
2022-10-02T02:53:06.755Z,1.63
2022-10-02T02:55:42.786Z,1.48
2022-10-02T02:58:29.361Z,1.90
2022-10-02T03:00:56.381Z,2.60
2022-10-02T03:03:23.292Z,1.90
2022-10-02T03:05:57.025Z,1.58
2022-10-02T03:08:28.148Z,1.85
2022-10-02T03:11:28.771Z,2.75
2022-10-02T03:14:33.165Z,1.92
2022-10-02T03:17:14.974Z,1.67
2022-10-02T03:20:00.496Z,2.63
2022-10-02T03:22:41.245Z,1.80
2022-10-02T03:25:36.897Z,1.92
2022-10-02T03:28:07.357Z,1.17
2022-10-02T03:30:35.836Z,1.83
2022-10-02T03:33:04.101Z,1.70
2022-10-02T03:35:31.915Z,1.73
2022-10-02T03:38:10.968Z,1.30
2022-10-02T03:40:38.049Z,2.33
2022-10-02T03:43:05.000Z,1.15
2022-10-02T03:45:51.259Z,1.30
2022-10-02T03:48:18.531Z,2.20
2022-10-02T03:50:45.860Z,2.00
2022-10-02T03:53:18.476Z,1.88
2022-10-02T03:58:45.851Z,1.35
2022-10-02T04:01:20.966Z,1.77
2022-10-02T04:03:56.037Z,2.22
2022-10-02T04:06:28.435Z,2.88
2022-10-02T04:09:11.133Z,1.20
2022-10-02T04:11:47.297Z,1.52
2022-10-02T04:14:21.688Z,2.25
2022-10-02T04:16:57.451Z,1.70
2022-10-02T04:19:30.059Z,2.22
2022-10-02T04:24:50.288Z,1.20
2022-10-02T04:27:36.664Z,1.00
2022-10-02T04:30:11.992Z,1.30
2022-10-02T04:32:39.069Z,1.40
2022-10-02T04:35:17.729Z,2.05
2022-10-02T04:38:15.005Z,1.30
2022-10-02T04:41:06.344Z,1.17
2022-10-02T04:44:26.817Z,2.05
2022-10-02T04:47:32.775Z,1.58
2022-10-02T04:50:23.640Z,1.33
2022-10-02T04:53:12.403Z,1.02
2022-10-02T04:56:01.057Z,1.00
2022-10-02T04:58:56.998Z,1.65
2022-10-02T05:01:55.007Z,1.10
2022-10-02T05:04:27.913Z,1.67
2022-10-02T05:07:25.190Z,1.73
2022-10-02T05:09:54.893Z,2.22
2022-10-02T05:12:36.976Z,2.03
2022-10-02T05:15:22.306Z,1.30
2022-10-02T05:18:11.731Z,1.80
2022-10-02T05:21:07.652Z,1.98
2022-10-02T05:26:46.955Z,1.85
2022-10-02T05:29:35.496Z,1.13
2022-10-02T05:32:20.673Z,2.03
2022-10-02T05:34:59.728Z,1.63
2022-10-02T05:37:52.315Z,1.42
2022-10-02T05:40:26.680Z,1.85
2022-10-02T05:43:12.937Z,1.48
2022-10-02T05:45:46.751Z,1.55
2022-10-02T05:48:23.029Z,2.40
2022-10-02T05:50:55.526Z,1.27
2022-10-02T05:53:40.676Z,1.92
2022-10-02T05:56:16.747Z,1.77
2022-10-02T05:59:07.503Z,2.70
2022-10-02T06:01:41.696Z,1.67
2022-10-02T06:04:22.414Z,1.40
2022-10-02T06:06:53.683Z,1.48
2022-10-02T06:09:33.328Z,1.83
2022-10-02T06:12:09.147Z,2.40
2022-10-02T06:14:54.712Z,1.25
2022-10-02T06:17:28.949Z,1.10
2022-10-02T06:20:22.795Z,1.10
2022-10-02T06:23:07.669Z,2.00
2022-10-02T06:25:52.736Z,2.40
2022-10-02T06:28:37.681Z,1.35
2022-10-02T06:31:15.555Z,1.63
2022-10-02T06:33:42.613Z,1.63
2022-10-02T06:36:38.496Z,1.40
2022-10-02T06:39:14.317Z,1.20
2022-10-02T06:41:47.313Z,1.80
2022-10-02T06:44:26.605Z,1.02
2022-10-02T06:46:59.346Z,2.08
2022-10-02T06:49:53.894Z,1.73
2022-10-02T06:52:37.827Z,1.80
2022-10-02T06:55:24.709Z,1.80
2022-10-02T06:57:54.381Z,2.15
2022-10-02T07:00:22.346Z,2.25
2022-10-02T07:03:00.955Z,1.52
2022-10-02T07:05:39.600Z,0.90
2022-10-02T07:08:31.894Z,2.15
2022-10-02T07:11:18.280Z,1.38
2022-10-02T07:13:56.841Z,1.40
2022-10-02T07:16:55.583Z,1.75
2022-10-02T07:19:25.576Z,0.90
2022-10-02T07:22:39.607Z,2.00
2022-10-02T07:25:07.437Z,2.05
2022-10-02T07:28:16.106Z,1.85
2022-10-02T07:31:29.496Z,2.63
2022-10-02T07:34:33.418Z,1.48
2022-10-02T07:37:18.228Z,1.50
2022-10-02T07:40:03.844Z,1.70
2022-10-02T07:43:01.853Z,1.85
2022-10-02T07:45:39.604Z,1.50
2022-10-02T07:48:21.487Z,1.92
2022-10-02T07:51:33.399Z,3.42
2022-10-02T07:54:22.754Z,1.85
2022-10-02T07:56:52.353Z,2.03
2022-10-02T07:59:19.784Z,2.05
2022-10-02T08:01:49.006Z,2.45
2022-10-02T08:04:32.263Z,1.80
2022-10-02T08:07:03.816Z,1.90
2022-10-02T08:09:36.540Z,1.80
2022-10-02T08:12:19.369Z,1.52
2022-10-02T08:17:41.101Z,2.17
2022-10-02T08:20:21.184Z,2.45
2022-10-02T08:23:15.442Z,1.60
2022-10-02T08:26:12.389Z,1.83
2022-10-02T08:29:11.936Z,1.92
2022-10-02T08:31:39.014Z,1.60
2022-10-02T08:34:12.389Z,1.38
2022-10-02T08:36:55.808Z,1.67
2022-10-02T08:39:50.511Z,1.92
2022-10-02T08:42:45.545Z,2.05
2022-10-02T08:45:25.083Z,1.88
2022-10-02T08:48:10.547Z,2.28
2022-10-02T08:50:52.069Z,1.40
2022-10-02T08:53:50.708Z,2.58
2022-10-02T08:56:55.175Z,1.65
2022-10-02T08:59:27.516Z,2.50
2022-10-02T09:02:17.160Z,2.78
2022-10-02T09:04:54.391Z,1.98
2022-10-02T09:07:56.693Z,2.20
2022-10-02T09:10:45.935Z,2.88
2022-10-02T09:13:38.258Z,2.33
2022-10-02T09:16:10.067Z,2.35
2022-10-02T09:19:27.305Z,2.25
2022-10-02T09:21:59.935Z,2.03
2022-10-02T09:27:35.208Z,2.28
2022-10-02T09:30:27.196Z,1.52
2022-10-02T09:33:21.826Z,1.75
2022-10-02T09:36:24.949Z,2.20
2022-10-02T09:39:16.294Z,1.25
2022-10-02T09:42:21.147Z,1.60
2022-10-02T09:45:01.453Z,1.60
2022-10-02T09:47:40.780Z,1.75
2022-10-02T09:50:13.081Z,2.03
2022-10-02T09:53:04.687Z,2.08
2022-10-02T09:56:05.760Z,2.13
2022-10-02T09:58:44.463Z,1.52
2022-10-02T10:01:14.240Z,1.58
2022-10-02T10:04:01.320Z,1.20
2022-10-02T10:06:39.184Z,1.88
2022-10-02T10:09:30.271Z,1.83
2022-10-02T10:12:23.217Z,1.73
2022-10-02T10:17:42.095Z,1.67
2022-10-02T10:20:36.682Z,1.90
2022-10-02T10:23:31.832Z,1.45
2022-10-02T10:26:16.295Z,2.95
2022-10-02T10:29:15.092Z,1.15
2022-10-02T10:32:17.538Z,1.38
2022-10-02T10:35:07.883Z,1.45
2022-10-02T10:38:23.465Z,1.50
2022-10-02T10:40:59.418Z,1.60
2022-10-02T10:43:41.966Z,1.40
2022-10-02T10:46:31.720Z,1.98
2022-10-02T10:49:28.977Z,1.55
2022-10-02T10:52:13.991Z,1.52
2022-10-02T10:54:59.250Z,1.35
2022-10-02T10:57:41.162Z,1.85
2022-10-02T11:00:23.095Z,2.03
2022-10-02T11:03:04.596Z,2.33
2022-10-02T11:06:07.208Z,1.73
2022-10-02T11:08:58.737Z,1.75
2022-10-02T11:11:49.603Z,2.28
2022-10-02T11:14:32.777Z,1.48
2022-10-02T11:17:11.529Z,1.63
2022-10-02T11:20:17.859Z,1.40
2022-10-02T11:22:50.780Z,1.83
2022-10-02T11:25:23.459Z,1.77
2022-10-02T11:28:28.610Z,1.30
2022-10-02T11:31:10.266Z,1.48
2022-10-02T11:34:16.691Z,1.50
2022-10-02T11:37:09.616Z,1.95
2022-10-02T11:42:58.988Z,1.75
2022-10-02T11:45:43.689Z,2.33
2022-10-02T11:48:39.070Z,1.48
2022-10-02T11:51:36.577Z,1.65
2022-10-02T11:54:29.099Z,1.35
2022-10-02T11:57:20.403Z,1.15
2022-10-02T11:59:53.291Z,1.45
2022-10-02T12:02:41.359Z,1.67
2022-10-02T12:05:45.990Z,1.38
2022-10-02T12:08:50.349Z,2.05
2022-10-02T12:11:54.416Z,1.05
2022-10-02T12:14:42.842Z,1.45
2022-10-02T12:17:16.532Z,1.65
2022-10-02T12:20:17.043Z,1.83
2022-10-02T12:23:37.709Z,1.40
2022-10-02T12:26:26.048Z,1.40
2022-10-02T12:29:08.306Z,2.50
2022-10-02T12:32:01.155Z,1.75
2022-10-02T12:37:15.393Z,1.13
2022-10-02T12:40:07.247Z,1.63
2022-10-02T12:42:45.784Z,1.30
2022-10-02T12:45:28.235Z,0.90
2022-10-02T12:48:47.012Z,1.55
2022-10-02T12:51:35.650Z,1.40
2022-10-02T12:54:33.692Z,1.30
2022-10-02T12:57:55.462Z,1.35
2022-10-02T13:00:29.295Z,1.23
2022-10-02T13:03:05.495Z,1.80
2022-10-02T13:05:57.997Z,1.55
2022-10-02T13:08:54.491Z,1.38
2022-10-02T13:11:42.742Z,1.05
2022-10-02T13:14:36.995Z,1.38
2022-10-02T13:17:39.499Z,1.73
2022-10-02T13:20:39.003Z,1.50
2022-10-02T13:23:32.820Z,1.20
2022-10-02T13:26:34.040Z,1.17
2022-10-02T13:29:20.956Z,1.10
2022-10-02T13:31:53.449Z,1.42
2022-10-02T13:37:45.116Z,0.85
2022-10-02T13:40:36.084Z,1.83
2022-10-02T13:43:23.998Z,1.02
2022-10-02T13:46:12.107Z,2.00
2022-10-02T13:48:55.002Z,1.65
2022-10-02T13:51:24.504Z,1.20
2022-10-02T13:54:11.442Z,1.73
2022-10-02T13:56:38.128Z,1.40
2022-10-02T13:59:11.853Z,1.33
2022-10-02T14:02:02.830Z,0.80
2022-10-02T14:04:50.569Z,1.65
2022-10-02T14:07:52.376Z,1.30
2022-10-02T14:10:31.006Z,1.80
2022-10-02T14:13:14.947Z,1.20
2022-10-02T14:16:25.658Z,1.17
2022-10-02T14:19:13.163Z,1.42
2022-10-02T14:22:17.389Z,1.33
2022-10-02T14:25:05.934Z,1.67
2022-10-02T14:28:02.811Z,1.23
2022-10-02T14:30:41.694Z,1.17
2022-10-02T14:33:20.729Z,1.30
2022-10-02T14:36:35.551Z,1.52
2022-10-02T14:39:39.298Z,1.10
2022-10-02T14:42:09.114Z,1.80
2022-10-02T14:45:01.171Z,1.40
2022-10-02T14:47:55.200Z,1.27
2022-10-02T14:50:51.816Z,1.40
2022-10-02T14:53:56.195Z,1.60
2022-10-02T14:56:41.989Z,1.50
2022-10-02T14:59:14.632Z,1.95
2022-10-02T15:02:07.274Z,1.52
2022-10-02T15:04:52.760Z,1.85
2022-10-02T15:07:26.018Z,1.75
2022-10-02T15:10:24.827Z,1.38
2022-10-02T15:13:01.035Z,1.35
2022-10-02T15:16:12.978Z,1.80
2022-10-02T15:19:06.072Z,2.10
2022-10-02T15:22:02.117Z,1.70
2022-10-02T15:24:31.589Z,1.40
2022-10-02T15:27:20.460Z,1.88
2022-10-02T15:30:04.627Z,1.17
2022-10-02T15:33:02.185Z,0.93
2022-10-02T15:36:01.041Z,1.05
2022-10-02T15:39:04.983Z,2.00
2022-10-02T15:41:43.507Z,1.98
2022-10-02T15:44:59.955Z,1.60
2022-10-02T15:47:44.679Z,1.73
2022-10-02T15:50:25.878Z,1.48
2022-10-02T15:53:16.512Z,1.63
2022-10-02T15:55:49.326Z,1.85
2022-10-02T15:58:52.451Z,1.45
2022-10-02T16:01:31.756Z,1.85
2022-10-02T16:04:18.728Z,1.42
2022-10-02T16:06:53.568Z,1.80
2022-10-02T16:09:35.187Z,1.90
2022-10-02T16:12:32.331Z,2.23
2022-10-02T16:15:22.892Z,2.60
2022-10-02T16:18:08.196Z,1.83
2022-10-02T16:21:06.427Z,6.50
2022-10-02T16:23:51.809Z,2.75
2022-10-02T16:26:33.922Z,2.90
2022-10-02T16:29:14.434Z,2.95
2022-10-02T16:31:53.106Z,2.10
2022-10-02T16:34:28.439Z,1.52
2022-10-02T16:37:07.451Z,2.20
2022-10-02T16:39:50.871Z,3.03
2022-10-02T16:42:49.815Z,1.88
2022-10-02T16:45:34.864Z,2.72
2022-10-02T16:48:14.769Z,2.70
2022-10-02T16:51:19.826Z,2.20
2022-10-02T16:54:22.532Z,1.23
2022-10-02T16:56:54.671Z,1.30
2022-10-02T16:59:49.471Z,1.73
2022-10-02T17:02:22.789Z,1.50
2022-10-02T17:04:52.525Z,1.70
2022-10-02T17:07:58.753Z,2.80
2022-10-02T17:10:36.641Z,10.35
2022-10-02T17:13:26.276Z,8.23
2022-10-02T17:16:03.636Z,11.73
2022-10-02T17:18:39.414Z,8.10
2022-10-02T17:21:38.080Z,5.05
2022-10-02T17:24:40.039Z,3.58
2022-10-02T17:27:40.260Z,2.40
2022-10-02T17:30:30.786Z,2.90
2022-10-02T17:33:06.961Z,2.67
2022-10-02T17:35:49.439Z,3.10
2022-10-02T17:38:18.968Z,2.25
2022-10-02T17:41:19.537Z,2.22
2022-10-02T17:44:05.097Z,2.95
2022-10-02T17:47:09.960Z,2.38
2022-10-02T17:49:55.531Z,2.08
2022-10-02T17:53:07.283Z,1.83
2022-10-02T17:56:11.713Z,2.20
2022-10-02T17:58:55.844Z,2.55
2022-10-02T18:01:41.766Z,2.45
2022-10-02T18:04:35.621Z,3.90
2022-10-02T18:07:05.064Z,3.45
2022-10-02T18:10:01.037Z,2.78
2022-10-02T18:12:45.603Z,3.63
2022-10-02T18:15:24.441Z,3.85
2022-10-02T18:17:59.989Z,3.40
2022-10-02T18:20:29.828Z,4.05
2022-10-02T18:23:18.896Z,4.53
2022-10-02T18:26:29.923Z,3.13
2022-10-02T18:29:23.413Z,3.55
2022-10-02T18:32:19.084Z,4.22
2022-10-02T18:35:24.412Z,4.30
2022-10-02T18:37:58.565Z,5.28
2022-10-02T18:40:30.793Z,4.68
2022-10-02T18:43:12.892Z,4.88
2022-10-02T18:46:12.069Z,5.57
2022-10-02T18:49:17.230Z,4.65
2022-10-02T18:51:57.961Z,6.70
2022-10-02T18:54:58.406Z,4.38
2022-10-02T18:57:51.622Z,5.45
2022-10-02T19:00:23.750Z,5.13
2022-10-02T19:03:17.892Z,4.43
2022-10-02T19:06:02.813Z,3.35
2022-10-02T19:09:09.180Z,4.95
2022-10-02T19:11:45.661Z,3.90
2022-10-02T19:14:23.298Z,4.60
2022-10-02T19:16:58.730Z,4.90
2022-10-02T19:19:27.908Z,3.13
2022-10-02T19:21:59.500Z,4.22
2022-10-02T19:24:31.265Z,4.10
2022-10-02T19:27:02.420Z,5.07
2022-10-02T19:29:32.058Z,4.28
2022-10-02T19:32:06.659Z,4.05
2022-10-02T19:34:34.638Z,3.03
2022-10-02T19:37:05.643Z,4.57
2022-10-02T19:39:39.602Z,4.22
2022-10-02T19:42:13.143Z,3.88
2022-10-02T19:44:49.505Z,2.80
2022-10-02T19:47:23.076Z,3.88
2022-10-02T19:49:52.231Z,4.35
2022-10-02T19:52:43.579Z,3.67
2022-10-02T19:55:29.135Z,3.53
2022-10-02T19:58:17.130Z,3.25
2022-10-02T20:00:44.115Z,3.95
2022-10-02T20:03:17.942Z,2.90
2022-10-02T20:05:46.730Z,3.38
2022-10-02T20:08:16.994Z,3.78
2022-10-02T20:10:54.149Z,3.65
2022-10-02T20:13:44.445Z,3.50
2022-10-02T20:16:45.639Z,3.88
2022-10-02T20:19:41.285Z,3.90
2022-10-02T20:22:36.789Z,4.22
2022-10-02T20:25:18.276Z,2.72
2022-10-02T20:27:52.250Z,3.28
2022-10-02T20:30:23.803Z,3.13
2022-10-02T20:33:00.932Z,4.13
2022-10-02T20:35:44.957Z,3.22
2022-10-02T20:38:34.003Z,3.35
2022-10-02T20:41:08.490Z,3.13
2022-10-02T20:43:55.095Z,4.38
2022-10-02T20:46:37.928Z,4.05
2022-10-02T20:52:17.449Z,4.20
2022-10-02T20:55:21.929Z,4.55
2022-10-02T20:58:04.673Z,3.50
2022-10-02T21:00:53.775Z,4.20
2022-10-02T21:03:31.356Z,3.35
2022-10-02T21:06:36.610Z,3.30
2022-10-02T21:09:09.495Z,3.55
2022-10-02T21:14:34.032Z,2.92
2022-10-02T21:17:27.373Z,3.80
2022-10-02T21:20:27.926Z,4.60
2022-10-02T21:23:32.198Z,4.85
2022-10-02T21:25:58.877Z,5.07
2022-10-02T21:28:44.359Z,2.72
2022-10-02T21:31:51.605Z,2.63
2022-10-02T21:34:56.084Z,2.80
2022-10-02T21:37:42.401Z,2.10
2022-10-02T21:40:46.881Z,3.13
2022-10-02T21:43:33.861Z,3.92
2022-10-02T21:46:41.318Z,3.70
2022-10-02T21:49:39.827Z,2.83
2022-10-02T21:52:12.637Z,3.00
2022-10-02T21:55:17.733Z,2.38
2022-10-02T21:58:22.616Z,2.95
2022-10-02T22:00:59.465Z,3.22
2022-10-02T22:03:32.445Z,3.55
2022-10-02T22:06:20.095Z,3.75
2022-10-02T22:09:20.078Z,2.67
2022-10-02T22:11:46.759Z,3.20
2022-10-02T22:14:19.227Z,4.53
2022-10-02T22:16:57.789Z,3.22
2022-10-02T22:19:46.476Z,2.75
2022-10-02T22:22:37.496Z,2.42
2022-10-02T22:25:27.541Z,3.03
2022-10-02T22:28:09.939Z,2.75
2022-10-02T22:30:49.794Z,2.58
2022-10-02T22:33:31.807Z,2.80
2022-10-02T22:35:58.467Z,3.10
2022-10-02T22:38:34.311Z,2.20
2022-10-02T22:41:09.168Z,2.42
2022-10-02T22:43:49.845Z,3.08
2022-10-02T22:46:24.245Z,4.55
2022-10-02T22:48:56.917Z,3.13
2022-10-02T22:54:05.218Z,3.47
2022-10-02T22:56:51.238Z,4.57
2022-10-02T22:59:24.002Z,4.57
2022-10-02T23:02:09.618Z,4.38
2022-10-02T23:04:52.799Z,4.10
2022-10-02T23:07:49.591Z,3.35
2022-10-02T23:10:28.631Z,3.83
2022-10-02T23:13:05.852Z,3.72
2022-10-02T23:15:59.538Z,4.05
2022-10-02T23:18:54.296Z,3.40
2022-10-02T23:21:50.755Z,3.13
2022-10-02T23:24:28.563Z,4.03
2022-10-02T23:27:15.917Z,4.40
2022-10-02T23:30:14.875Z,3.63
2022-10-02T23:32:55.915Z,2.75
2022-10-02T23:35:28.732Z,4.60
2022-10-02T23:38:12.300Z,2.88
2022-10-02T23:41:16.699Z,3.15
2022-10-02T23:43:48.764Z,2.95
2022-10-02T23:46:25.939Z,3.60
2022-10-02T23:48:53.983Z,3.35
2022-10-02T23:51:50.550Z,3.05
2022-10-02T23:54:24.475Z,3.70
2022-10-02T23:56:51.208Z,2.63
2022-10-02T23:59:48.458Z,3.28
